sensor_id;sensor_type;location;lat;lon;timestamp;temperature;humidity
16128;DHT22;8168;49.036;7.690;2024-02-26T00:02:11;8.30;99.90
16128;DHT22;8168;49.036;7.690;2024-02-26T00:04:42;8.30;99.90
16128;DHT22;8168;49.036;7.690;2024-02-26T00:07:12;8.30;99.90
16128;DHT22;8168;49.036;7.690;2024-02-26T00:09:43;8.20;99.90
16128;DHT22;8168;49.036;7.690;2024-02-26T00:12:14;8.20;99.90
16128;DHT22;8168;49.036;7.690;2024-02-26T00:14:45;8.20;99.90
16128;DHT22;8168;49.036;7.690;2024-02-26T00:17:17;8.20;99.90
16128;DHT22;8168;49.036;7.690;2024-02-26T00:19:48;8.20;99.90
16128;DHT22;8168;49.036;7.690;2024-02-26T00:22:18;8.20;99.90
16128;DHT22;8168;49.036;7.690;2024-02-26T00:24:49;8.20;99.90
16128;DHT22;8168;49.036;7.690;2024-02-26T00:27:20;8.10;99.90
16128;DHT22;8168;49.036;7.690;2024-02-26T00:29:50;8.10;99.90
16128;DHT22;8168;49.036;7.690;2024-02-26T00:32:21;8.10;99.90
16128;DHT22;8168;49.036;7.690;2024-02-26T00:34:51;8.10;99.90
16128;DHT22;8168;49.036;7.690;2024-02-26T00:37:22;8.10;99.90
16128;DHT22;8168;49.036;7.690;2024-02-26T00:39:52;8.00;99.90
16128;DHT22;8168;49.036;7.690;2024-02-26T00:42:24;8.10;99.90
16128;DHT22;8168;49.036;7.690;2024-02-26T00:44:55;8.10;99.90
16128;DHT22;8168;49.036;7.690;2024-02-26T00:47:25;8.10;99.90
16128;DHT22;8168;49.036;7.690;2024-02-26T00:49:56;8.10;99.90
16128;DHT22;8168;49.036;7.690;2024-02-26T00:52:27;8.00;99.90
16128;DHT22;8168;49.036;7.690;2024-02-26T00:54:57;8.00;99.90
16128;DHT22;8168;49.036;7.690;2024-02-26T00:57:28;8.00;99.90
16128;DHT22;8168;49.036;7.690;2024-02-26T00:59:58;7.90;99.90
16128;DHT22;8168;49.036;7.690;2024-02-26T01:02:29;7.80;99.90
16128;DHT22;8168;49.036;7.690;2024-02-26T01:05:00;7.70;99.90
16128;DHT22;8168;49.036;7.690;2024-02-26T01:07:31;7.70;99.90
16128;DHT22;8168;49.036;7.690;2024-02-26T01:10:06;7.70;99.90
16128;DHT22;8168;49.036;7.690;2024-02-26T01:12:37;7.60;99.90
16128;DHT22;8168;49.036;7.690;2024-02-26T01:15:08;7.70;99.90
16128;DHT22;8168;49.036;7.690;2024-02-26T01:17:39;7.60;99.90
16128;DHT22;8168;49.036;7.690;2024-02-26T01:20:10;7.60;99.90
16128;DHT22;8168;49.036;7.690;2024-02-26T01:22:40;7.70;99.90
16128;DHT22;8168;49.036;7.690;2024-02-26T01:25:12;7.60;99.90
16128;DHT22;8168;49.036;7.690;2024-02-26T01:27:42;7.60;99.90
16128;DHT22;8168;49.036;7.690;2024-02-26T01:30:14;7.60;99.90
16128;DHT22;8168;49.036;7.690;2024-02-26T01:32:47;7.60;99.90
16128;DHT22;8168;49.036;7.690;2024-02-26T01:35:18;7.60;99.90
16128;DHT22;8168;49.036;7.690;2024-02-26T01:37:49;7.50;99.90
16128;DHT22;8168;49.036;7.690;2024-02-26T01:40:20;7.50;99.90
16128;DHT22;8168;49.036;7.690;2024-02-26T01:42:52;7.50;99.90
16128;DHT22;8168;49.036;7.690;2024-02-26T01:45:23;7.40;99.90
16128;DHT22;8168;49.036;7.690;2024-02-26T01:47:56;7.40;99.90
16128;DHT22;8168;49.036;7.690;2024-02-26T01:50:27;7.30;99.90
16128;DHT22;8168;49.036;7.690;2024-02-26T01:52:59;7.30;99.90
16128;DHT22;8168;49.036;7.690;2024-02-26T01:55:29;7.30;99.90
16128;DHT22;8168;49.036;7.690;2024-02-26T01:58:00;7.30;99.90
16128;DHT22;8168;49.036;7.690;2024-02-26T02:00:31;7.30;99.90
16128;DHT22;8168;49.036;7.690;2024-02-26T02:03:03;7.20;99.90
16128;DHT22;8168;49.036;7.690;2024-02-26T02:05:34;7.10;99.90
16128;DHT22;8168;49.036;7.690;2024-02-26T02:08:12;7.20;99.90
16128;DHT22;8168;49.036;7.690;2024-02-26T02:10:43;7.10;99.90
16128;DHT22;8168;49.036;7.690;2024-02-26T02:13:14;7.10;99.90
16128;DHT22;8168;49.036;7.690;2024-02-26T02:15:45;7.10;99.90
16128;DHT22;8168;49.036;7.690;2024-02-26T02:18:16;7.10;99.90
16128;DHT22;8168;49.036;7.690;2024-02-26T02:20:46;7.10;99.90
16128;DHT22;8168;49.036;7.690;2024-02-26T02:23:17;7.10;99.90
16128;DHT22;8168;49.036;7.690;2024-02-26T02:25:48;7.10;99.90
16128;DHT22;8168;49.036;7.690;2024-02-26T02:28:19;7.10;99.90
16128;DHT22;8168;49.036;7.690;2024-02-26T02:30:49;7.10;99.90
16128;DHT22;8168;49.036;7.690;2024-02-26T02:33:21;7.10;99.90
16128;DHT22;8168;49.036;7.690;2024-02-26T02:35:51;7.10;99.90
16128;DHT22;8168;49.036;7.690;2024-02-26T02:38:24;7.10;99.90
16128;DHT22;8168;49.036;7.690;2024-02-26T02:40:56;7.00;99.90
16128;DHT22;8168;49.036;7.690;2024-02-26T02:43:26;7.00;99.90
16128;DHT22;8168;49.036;7.690;2024-02-26T02:45:57;7.10;99.90
16128;DHT22;8168;49.036;7.690;2024-02-26T02:48:28;7.10;99.90
16128;DHT22;8168;49.036;7.690;2024-02-26T02:50:58;7.10;99.90
16128;DHT22;8168;49.036;7.690;2024-02-26T02:53:29;7.10;99.90
16128;DHT22;8168;49.036;7.690;2024-02-26T02:55:59;7.10;99.90
16128;DHT22;8168;49.036;7.690;2024-02-26T02:58:30;7.10;99.90
16128;DHT22;8168;49.036;7.690;2024-02-26T03:01:01;7.10;99.90
16128;DHT22;8168;49.036;7.690;2024-02-26T03:03:31;7.10;99.90
16128;DHT22;8168;49.036;7.690;2024-02-26T03:06:03;7.10;99.90
16128;DHT22;8168;49.036;7.690;2024-02-26T03:08:33;7.10;99.90
16128;DHT22;8168;49.036;7.690;2024-02-26T03:11:12;7.10;99.90
16128;DHT22;8168;49.036;7.690;2024-02-26T03:13:43;7.10;99.90
16128;DHT22;8168;49.036;7.690;2024-02-26T03:16:13;7.10;99.90
16128;DHT22;8168;49.036;7.690;2024-02-26T03:18:44;7.20;99.90
16128;DHT22;8168;49.036;7.690;2024-02-26T03:21:15;7.20;99.90
16128;DHT22;8168;49.036;7.690;2024-02-26T03:23:45;7.20;99.90
16128;DHT22;8168;49.036;7.690;2024-02-26T03:26:16;7.20;99.90
16128;DHT22;8168;49.036;7.690;2024-02-26T03:28:47;7.20;99.90
16128;DHT22;8168;49.036;7.690;2024-02-26T03:31:17;7.20;99.90
16128;DHT22;8168;49.036;7.690;2024-02-26T03:33:48;7.20;99.90
16128;DHT22;8168;49.036;7.690;2024-02-26T03:36:19;7.20;99.90
16128;DHT22;8168;49.036;7.690;2024-02-26T03:38:49;7.20;99.90
16128;DHT22;8168;49.036;7.690;2024-02-26T03:41:20;7.30;99.90
16128;DHT22;8168;49.036;7.690;2024-02-26T03:43:50;7.30;99.90
16128;DHT22;8168;49.036;7.690;2024-02-26T03:46:21;7.30;99.90
16128;DHT22;8168;49.036;7.690;2024-02-26T03:48:51;7.20;99.90
16128;DHT22;8168;49.036;7.690;2024-02-26T03:51:22;7.20;99.90
16128;DHT22;8168;49.036;7.690;2024-02-26T03:53:53;7.10;99.90
16128;DHT22;8168;49.036;7.690;2024-02-26T03:56:23;7.10;99.90
16128;DHT22;8168;49.036;7.690;2024-02-26T03:58:54;7.10;99.90
16128;DHT22;8168;49.036;7.690;2024-02-26T04:01:25;7.10;99.90
16128;DHT22;8168;49.036;7.690;2024-02-26T04:03:55;7.10;99.90
16128;DHT22;8168;49.036;7.690;2024-02-26T04:06:26;7.20;99.90
16128;DHT22;8168;49.036;7.690;2024-02-26T04:08:57;7.20;99.90
16128;DHT22;8168;49.036;7.690;2024-02-26T04:11:27;7.20;99.90
16128;DHT22;8168;49.036;7.690;2024-02-26T04:13:58;7.20;99.90
16128;DHT22;8168;49.036;7.690;2024-02-26T04:16:29;7.20;99.90
16128;DHT22;8168;49.036;7.690;2024-02-26T04:18:59;7.20;99.90
16128;DHT22;8168;49.036;7.690;2024-02-26T04:21:30;7.20;99.90
16128;DHT22;8168;49.036;7.690;2024-02-26T04:24:00;7.30;99.90
16128;DHT22;8168;49.036;7.690;2024-02-26T04:26:32;7.30;99.90
16128;DHT22;8168;49.036;7.690;2024-02-26T04:29:02;7.20;99.90
16128;DHT22;8168;49.036;7.690;2024-02-26T04:31:33;7.20;99.90
16128;DHT22;8168;49.036;7.690;2024-02-26T04:34:04;7.10;99.90
16128;DHT22;8168;49.036;7.690;2024-02-26T04:36:34;7.10;99.90
16128;DHT22;8168;49.036;7.690;2024-02-26T04:39:05;7.10;99.90
16128;DHT22;8168;49.036;7.690;2024-02-26T04:41:36;7.00;99.90
16128;DHT22;8168;49.036;7.690;2024-02-26T04:44:07;7.00;99.90
16128;DHT22;8168;49.036;7.690;2024-02-26T04:46:38;7.00;99.90
16128;DHT22;8168;49.036;7.690;2024-02-26T04:49:08;7.00;99.90
16128;DHT22;8168;49.036;7.690;2024-02-26T04:51:39;7.00;99.90
16128;DHT22;8168;49.036;7.690;2024-02-26T04:54:10;7.00;99.90
16128;DHT22;8168;49.036;7.690;2024-02-26T04:56:40;7.10;99.90
16128;DHT22;8168;49.036;7.690;2024-02-26T04:59:11;7.10;99.90
16128;DHT22;8168;49.036;7.690;2024-02-26T05:01:41;7.10;99.90
16128;DHT22;8168;49.036;7.690;2024-02-26T05:04:12;7.10;99.90
16128;DHT22;8168;49.036;7.690;2024-02-26T05:06:43;7.10;99.90
16128;DHT22;8168;49.036;7.690;2024-02-26T05:09:13;7.10;99.90
16128;DHT22;8168;49.036;7.690;2024-02-26T05:11:44;7.10;99.90
16128;DHT22;8168;49.036;7.690;2024-02-26T05:14:15;7.10;99.90
16128;DHT22;8168;49.036;7.690;2024-02-26T05:16:45;7.00;99.90
16128;DHT22;8168;49.036;7.690;2024-02-26T05:19:16;7.00;99.90
16128;DHT22;8168;49.036;7.690;2024-02-26T05:21:46;7.00;99.90
16128;DHT22;8168;49.036;7.690;2024-02-26T05:24:19;7.00;99.90
16128;DHT22;8168;49.036;7.690;2024-02-26T05:26:53;7.10;99.90
16128;DHT22;8168;49.036;7.690;2024-02-26T05:29:25;7.10;99.90
16128;DHT22;8168;49.036;7.690;2024-02-26T05:31:55;7.10;99.90
16128;DHT22;8168;49.036;7.690;2024-02-26T05:34:26;7.10;99.90
16128;DHT22;8168;49.036;7.690;2024-02-26T05:36:57;7.00;99.90
16128;DHT22;8168;49.036;7.690;2024-02-26T05:39:27;7.00;99.90
16128;DHT22;8168;49.036;7.690;2024-02-26T05:41:58;7.00;99.90
16128;DHT22;8168;49.036;7.690;2024-02-26T05:44:29;7.00;99.90
16128;DHT22;8168;49.036;7.690;2024-02-26T05:46:59;7.00;99.90
16128;DHT22;8168;49.036;7.690;2024-02-26T05:49:30;7.00;99.90
16128;DHT22;8168;49.036;7.690;2024-02-26T05:52:01;7.10;99.90
16128;DHT22;8168;49.036;7.690;2024-02-26T05:54:32;7.10;99.90
16128;DHT22;8168;49.036;7.690;2024-02-26T05:57:03;7.10;99.90
16128;DHT22;8168;49.036;7.690;2024-02-26T05:59:33;7.10;99.90
16128;DHT22;8168;49.036;7.690;2024-02-26T06:02:04;7.10;99.90
16128;DHT22;8168;49.036;7.690;2024-02-26T06:04:35;7.10;99.90
16128;DHT22;8168;49.036;7.690;2024-02-26T06:07:05;7.10;99.90
16128;DHT22;8168;49.036;7.690;2024-02-26T06:09:37;7.10;99.90
16128;DHT22;8168;49.036;7.690;2024-02-26T06:12:07;7.20;99.90
16128;DHT22;8168;49.036;7.690;2024-02-26T06:14:38;7.20;99.90
16128;DHT22;8168;49.036;7.690;2024-02-26T06:17:09;7.20;99.90
16128;DHT22;8168;49.036;7.690;2024-02-26T06:19:39;7.20;99.90
16128;DHT22;8168;49.036;7.690;2024-02-26T06:22:10;7.20;99.90
16128;DHT22;8168;49.036;7.690;2024-02-26T06:24:41;7.20;99.90
16128;DHT22;8168;49.036;7.690;2024-02-26T06:27:11;7.30;99.90
16128;DHT22;8168;49.036;7.690;2024-02-26T06:29:42;7.30;99.90
16128;DHT22;8168;49.036;7.690;2024-02-26T06:32:14;7.30;99.90
16128;DHT22;8168;49.036;7.690;2024-02-26T06:34:44;7.20;99.90
16128;DHT22;8168;49.036;7.690;2024-02-26T06:37:15;7.20;99.90
16128;DHT22;8168;49.036;7.690;2024-02-26T06:39:46;7.20;99.90
16128;DHT22;8168;49.036;7.690;2024-02-26T06:42:17;7.20;99.90
16128;DHT22;8168;49.036;7.690;2024-02-26T06:44:47;7.20;99.90
16128;DHT22;8168;49.036;7.690;2024-02-26T06:47:18;7.30;99.90
16128;DHT22;8168;49.036;7.690;2024-02-26T06:49:50;7.30;99.90
16128;DHT22;8168;49.036;7.690;2024-02-26T06:52:20;7.30;99.90
16128;DHT22;8168;49.036;7.690;2024-02-26T06:54:51;7.20;99.90
16128;DHT22;8168;49.036;7.690;2024-02-26T06:57:23;7.30;99.90
16128;DHT22;8168;49.036;7.690;2024-02-26T06:59:54;7.20;99.90
16128;DHT22;8168;49.036;7.690;2024-02-26T07:02:26;7.20;99.90
16128;DHT22;8168;49.036;7.690;2024-02-26T07:04:57;7.30;99.90
16128;DHT22;8168;49.036;7.690;2024-02-26T07:07:28;7.30;99.90
16128;DHT22;8168;49.036;7.690;2024-02-26T07:09:59;7.30;99.90
16128;DHT22;8168;49.036;7.690;2024-02-26T07:12:30;7.30;99.90
16128;DHT22;8168;49.036;7.690;2024-02-26T07:15:01;7.30;99.90
16128;DHT22;8168;49.036;7.690;2024-02-26T07:17:33;7.30;99.90
16128;DHT22;8168;49.036;7.690;2024-02-26T07:20:04;7.30;99.90
16128;DHT22;8168;49.036;7.690;2024-02-26T07:22:35;7.40;99.90
16128;DHT22;8168;49.036;7.690;2024-02-26T07:25:06;7.40;99.90
16128;DHT22;8168;49.036;7.690;2024-02-26T07:27:39;7.40;99.90
16128;DHT22;8168;49.036;7.690;2024-02-26T07:30:11;7.50;99.90
16128;DHT22;8168;49.036;7.690;2024-02-26T07:32:42;7.50;99.90
16128;DHT22;8168;49.036;7.690;2024-02-26T07:35:13;7.50;99.90
16128;DHT22;8168;49.036;7.690;2024-02-26T07:37:43;7.50;99.90
16128;DHT22;8168;49.036;7.690;2024-02-26T07:40:14;7.50;99.90
16128;DHT22;8168;49.036;7.690;2024-02-26T07:42:45;7.50;99.90
16128;DHT22;8168;49.036;7.690;2024-02-26T07:45:15;7.50;99.90
16128;DHT22;8168;49.036;7.690;2024-02-26T07:47:48;7.50;99.90
16128;DHT22;8168;49.036;7.690;2024-02-26T07:50:19;7.60;99.90
16128;DHT22;8168;49.036;7.690;2024-02-26T07:52:50;7.60;99.90
16128;DHT22;8168;49.036;7.690;2024-02-26T07:55:21;7.60;99.90
16128;DHT22;8168;49.036;7.690;2024-02-26T07:57:53;7.70;99.90
16128;DHT22;8168;49.036;7.690;2024-02-26T08:00:23;7.80;99.90
16128;DHT22;8168;49.036;7.690;2024-02-26T08:02:54;7.80;99.90
16128;DHT22;8168;49.036;7.690;2024-02-26T08:05:25;7.90;99.90
16128;DHT22;8168;49.036;7.690;2024-02-26T08:07:55;8.00;99.90
16128;DHT22;8168;49.036;7.690;2024-02-26T08:10:26;8.00;99.90
16128;DHT22;8168;49.036;7.690;2024-02-26T08:12:57;8.10;99.90
16128;DHT22;8168;49.036;7.690;2024-02-26T08:15:35;8.10;99.90
16128;DHT22;8168;49.036;7.690;2024-02-26T08:18:07;8.20;99.90
16128;DHT22;8168;49.036;7.690;2024-02-26T08:20:38;8.20;99.90
16128;DHT22;8168;49.036;7.690;2024-02-26T08:23:09;8.20;99.90
16128;DHT22;8168;49.036;7.690;2024-02-26T08:25:40;8.20;99.90
16128;DHT22;8168;49.036;7.690;2024-02-26T08:28:10;8.20;99.90
16128;DHT22;8168;49.036;7.690;2024-02-26T08:30:44;8.30;99.90
16128;DHT22;8168;49.036;7.690;2024-02-26T08:33:15;8.40;99.90
16128;DHT22;8168;49.036;7.690;2024-02-26T08:35:45;8.40;99.90
16128;DHT22;8168;49.036;7.690;2024-02-26T08:38:16;8.50;99.90
16128;DHT22;8168;49.036;7.690;2024-02-26T08:40:47;8.60;99.90
16128;DHT22;8168;49.036;7.690;2024-02-26T08:43:17;8.60;99.90
16128;DHT22;8168;49.036;7.690;2024-02-26T08:45:49;8.60;99.90
16128;DHT22;8168;49.036;7.690;2024-02-26T08:48:20;8.60;99.90
16128;DHT22;8168;49.036;7.690;2024-02-26T08:50:50;8.60;99.90
16128;DHT22;8168;49.036;7.690;2024-02-26T08:53:21;8.70;99.90
16128;DHT22;8168;49.036;7.690;2024-02-26T08:55:52;8.70;99.90
16128;DHT22;8168;49.036;7.690;2024-02-26T08:58:22;8.70;99.90
16128;DHT22;8168;49.036;7.690;2024-02-26T09:00:53;8.70;99.90
16128;DHT22;8168;49.036;7.690;2024-02-26T09:03:24;8.70;99.90
16128;DHT22;8168;49.036;7.690;2024-02-26T09:05:54;8.80;99.90
16128;DHT22;8168;49.036;7.690;2024-02-26T09:08:25;8.80;99.90
16128;DHT22;8168;49.036;7.690;2024-02-26T09:10:56;8.80;99.90
16128;DHT22;8168;49.036;7.690;2024-02-26T09:13:26;8.90;99.90
16128;DHT22;8168;49.036;7.690;2024-02-26T09:15:57;8.90;99.90
16128;DHT22;8168;49.036;7.690;2024-02-26T09:18:29;9.00;99.90
16128;DHT22;8168;49.036;7.690;2024-02-26T09:20:59;9.00;99.90
16128;DHT22;8168;49.036;7.690;2024-02-26T09:23:30;9.00;99.90
16128;DHT22;8168;49.036;7.690;2024-02-26T09:26:01;9.00;99.90
16128;DHT22;8168;49.036;7.690;2024-02-26T09:28:31;9.00;99.90
16128;DHT22;8168;49.036;7.690;2024-02-26T09:31:07;9.10;99.90
16128;DHT22;8168;49.036;7.690;2024-02-26T09:33:38;9.10;99.90
16128;DHT22;8168;49.036;7.690;2024-02-26T09:36:08;9.20;99.90
16128;DHT22;8168;49.036;7.690;2024-02-26T09:38:41;9.20;99.90
16128;DHT22;8168;49.036;7.690;2024-02-26T09:41:15;9.20;99.90
16128;DHT22;8168;49.036;7.690;2024-02-26T09:43:48;9.30;99.90
16128;DHT22;8168;49.036;7.690;2024-02-26T09:46:23;9.30;99.90
16128;DHT22;8168;49.036;7.690;2024-02-26T09:48:56;9.30;99.90
16128;DHT22;8168;49.036;7.690;2024-02-26T09:51:27;9.40;99.90
16128;DHT22;8168;49.036;7.690;2024-02-26T09:53:59;9.50;99.90
16128;DHT22;8168;49.036;7.690;2024-02-26T09:56:31;9.60;99.90
16128;DHT22;8168;49.036;7.690;2024-02-26T09:59:03;9.60;99.90
16128;DHT22;8168;49.036;7.690;2024-02-26T10:01:37;9.70;99.90
16128;DHT22;8168;49.036;7.690;2024-02-26T10:04:10;9.70;99.90
16128;DHT22;8168;49.036;7.690;2024-02-26T10:06:41;9.80;99.90
16128;DHT22;8168;49.036;7.690;2024-02-26T10:09:15;10.00;99.90
16128;DHT22;8168;49.036;7.690;2024-02-26T10:11:49;10.10;99.90
16128;DHT22;8168;49.036;7.690;2024-02-26T10:14:20;10.20;99.90
16128;DHT22;8168;49.036;7.690;2024-02-26T10:16:52;10.20;99.90
16128;DHT22;8168;49.036;7.690;2024-02-26T10:19:29;10.30;99.90
16128;DHT22;8168;49.036;7.690;2024-02-26T10:22:01;10.30;99.90
16128;DHT22;8168;49.036;7.690;2024-02-26T10:24:32;10.30;99.90
16128;DHT22;8168;49.036;7.690;2024-02-26T10:27:05;10.30;99.90
16128;DHT22;8168;49.036;7.690;2024-02-26T10:29:35;10.30;99.90
16128;DHT22;8168;49.036;7.690;2024-02-26T10:32:06;10.30;99.90
16128;DHT22;8168;49.036;7.690;2024-02-26T10:34:37;10.40;99.90
16128;DHT22;8168;49.036;7.690;2024-02-26T10:37:11;10.40;99.90
16128;DHT22;8168;49.036;7.690;2024-02-26T10:39:46;10.50;99.90
16128;DHT22;8168;49.036;7.690;2024-02-26T10:42:17;10.50;99.90
16128;DHT22;8168;49.036;7.690;2024-02-26T10:44:50;10.60;99.90
16128;DHT22;8168;49.036;7.690;2024-02-26T10:47:21;10.70;99.90
16128;DHT22;8168;49.036;7.690;2024-02-26T10:49:51;10.70;99.90
16128;DHT22;8168;49.036;7.690;2024-02-26T10:52:23;10.70;99.90
16128;DHT22;8168;49.036;7.690;2024-02-26T10:54:57;10.70;99.90
16128;DHT22;8168;49.036;7.690;2024-02-26T10:57:40;10.80;99.90
16128;DHT22;8168;49.036;7.690;2024-02-26T11:00:15;10.80;99.90
16128;DHT22;8168;49.036;7.690;2024-02-26T11:02:46;10.80;99.90
16128;DHT22;8168;49.036;7.690;2024-02-26T11:05:18;10.80;99.90
16128;DHT22;8168;49.036;7.690;2024-02-26T11:07:50;10.80;99.90
16128;DHT22;8168;49.036;7.690;2024-02-26T11:10:22;10.80;99.90
16128;DHT22;8168;49.036;7.690;2024-02-26T11:12:56;10.80;99.90
16128;DHT22;8168;49.036;7.690;2024-02-26T11:15:30;10.80;99.90
16128;DHT22;8168;49.036;7.690;2024-02-26T11:18:04;10.70;99.90
16128;DHT22;8168;49.036;7.690;2024-02-26T11:20:38;10.70;99.90
16128;DHT22;8168;49.036;7.690;2024-02-26T11:23:10;10.80;99.90
16128;DHT22;8168;49.036;7.690;2024-02-26T11:25:40;10.80;99.90
16128;DHT22;8168;49.036;7.690;2024-02-26T11:28:14;10.90;99.90
16128;DHT22;8168;49.036;7.690;2024-02-26T11:30:48;10.90;99.90
16128;DHT22;8168;49.036;7.690;2024-02-26T11:33:20;10.90;99.90
16128;DHT22;8168;49.036;7.690;2024-02-26T11:35:51;10.90;99.90
16128;DHT22;8168;49.036;7.690;2024-02-26T11:38:24;11.00;99.90
16128;DHT22;8168;49.036;7.690;2024-02-26T11:40:56;11.00;99.90
16128;DHT22;8168;49.036;7.690;2024-02-26T11:43:50;11.10;99.90
16128;DHT22;8168;49.036;7.690;2024-02-26T11:46:42;11.10;99.90
16128;DHT22;8168;49.036;7.690;2024-02-26T11:51:59;11.10;99.90
16128;DHT22;8168;49.036;7.690;2024-02-26T11:55:02;11.10;99.90
16128;DHT22;8168;49.036;7.690;2024-02-26T12:00:14;11.10;99.90
16128;DHT22;8168;49.036;7.690;2024-02-26T12:02:47;11.20;99.90
16128;DHT22;8168;49.036;7.690;2024-02-26T12:05:21;11.20;99.90
16128;DHT22;8168;49.036;7.690;2024-02-26T12:07:59;11.30;99.90
16128;DHT22;8168;49.036;7.690;2024-02-26T12:10:34;11.30;99.90
16128;DHT22;8168;49.036;7.690;2024-02-26T12:13:15;11.40;99.90
16128;DHT22;8168;49.036;7.690;2024-02-26T12:15:57;11.40;99.90
16128;DHT22;8168;49.036;7.690;2024-02-26T12:18:28;11.40;99.90
16128;DHT22;8168;49.036;7.690;2024-02-26T12:21:01;11.40;99.90
16128;DHT22;8168;49.036;7.690;2024-02-26T12:23:32;11.50;99.90
16128;DHT22;8168;49.036;7.690;2024-02-26T12:26:03;11.50;99.90
16128;DHT22;8168;49.036;7.690;2024-02-26T12:28:34;11.50;99.90
16128;DHT22;8168;49.036;7.690;2024-02-26T12:31:04;11.50;99.90
16128;DHT22;8168;49.036;7.690;2024-02-26T12:33:35;11.50;99.90
16128;DHT22;8168;49.036;7.690;2024-02-26T12:36:06;11.60;99.90
16128;DHT22;8168;49.036;7.690;2024-02-26T12:38:38;11.60;99.90
16128;DHT22;8168;49.036;7.690;2024-02-26T12:41:08;11.60;99.90
16128;DHT22;8168;49.036;7.690;2024-02-26T12:43:39;11.70;99.90
16128;DHT22;8168;49.036;7.690;2024-02-26T12:46:10;11.70;99.90
16128;DHT22;8168;49.036;7.690;2024-02-26T12:48:43;11.80;99.90
16128;DHT22;8168;49.036;7.690;2024-02-26T12:51:16;11.80;99.90
16128;DHT22;8168;49.036;7.690;2024-02-26T12:53:47;11.90;99.90
16128;DHT22;8168;49.036;7.690;2024-02-26T12:56:21;11.90;99.90
16128;DHT22;8168;49.036;7.690;2024-02-26T12:58:52;11.80;99.90
16128;DHT22;8168;49.036;7.690;2024-02-26T13:01:24;11.90;99.90
16128;DHT22;8168;49.036;7.690;2024-02-26T13:03:55;12.00;99.90
16128;DHT22;8168;49.036;7.690;2024-02-26T13:06:26;12.00;99.90
16128;DHT22;8168;49.036;7.690;2024-02-26T13:08:57;12.00;99.90
16128;DHT22;8168;49.036;7.690;2024-02-26T13:11:32;12.00;99.90
16128;DHT22;8168;49.036;7.690;2024-02-26T13:14:03;11.90;99.90
16128;DHT22;8168;49.036;7.690;2024-02-26T13:16:34;12.00;99.90
16128;DHT22;8168;49.036;7.690;2024-02-26T13:19:10;12.20;99.90
16128;DHT22;8168;49.036;7.690;2024-02-26T13:21:41;12.30;99.90
16128;DHT22;8168;49.036;7.690;2024-02-26T13:24:13;12.40;99.90
16128;DHT22;8168;49.036;7.690;2024-02-26T13:26:44;12.60;99.90
16128;DHT22;8168;49.036;7.690;2024-02-26T13:29:21;12.70;99.90
16128;DHT22;8168;49.036;7.690;2024-02-26T13:31:57;12.80;99.90
16128;DHT22;8168;49.036;7.690;2024-02-26T13:34:28;12.90;99.90
16128;DHT22;8168;49.036;7.690;2024-02-26T13:37:00;12.90;99.90
16128;DHT22;8168;49.036;7.690;2024-02-26T13:39:31;12.90;99.90
16128;DHT22;8168;49.036;7.690;2024-02-26T13:42:02;13.00;99.90
16128;DHT22;8168;49.036;7.690;2024-02-26T13:44:32;13.00;99.90
16128;DHT22;8168;49.036;7.690;2024-02-26T13:47:07;13.00;99.90
16128;DHT22;8168;49.036;7.690;2024-02-26T13:49:37;13.00;99.90
16128;DHT22;8168;49.036;7.690;2024-02-26T13:52:08;13.10;99.90
16128;DHT22;8168;49.036;7.690;2024-02-26T13:54:38;13.20;99.90
16128;DHT22;8168;49.036;7.690;2024-02-26T13:57:10;13.20;99.90
16128;DHT22;8168;49.036;7.690;2024-02-26T13:59:41;13.10;99.90
16128;DHT22;8168;49.036;7.690;2024-02-26T14:02:13;13.00;99.90
16128;DHT22;8168;49.036;7.690;2024-02-26T14:04:43;12.90;99.90
16128;DHT22;8168;49.036;7.690;2024-02-26T14:07:15;12.80;99.90
16128;DHT22;8168;49.036;7.690;2024-02-26T14:09:47;12.80;99.90
16128;DHT22;8168;49.036;7.690;2024-02-26T14:12:18;12.70;99.90
16128;DHT22;8168;49.036;7.690;2024-02-26T14:14:48;12.70;99.90
16128;DHT22;8168;49.036;7.690;2024-02-26T14:17:19;12.70;99.90
16128;DHT22;8168;49.036;7.690;2024-02-26T14:19:50;12.70;99.90
16128;DHT22;8168;49.036;7.690;2024-02-26T14:22:20;12.80;99.90
16128;DHT22;8168;49.036;7.690;2024-02-26T14:24:51;12.80;99.90
16128;DHT22;8168;49.036;7.690;2024-02-26T14:27:22;12.90;99.90
16128;DHT22;8168;49.036;7.690;2024-02-26T14:29:53;12.90;99.90
16128;DHT22;8168;49.036;7.690;2024-02-26T14:32:25;13.00;99.90
16128;DHT22;8168;49.036;7.690;2024-02-26T14:34:56;13.00;99.90
16128;DHT22;8168;49.036;7.690;2024-02-26T14:37:27;13.10;99.90
16128;DHT22;8168;49.036;7.690;2024-02-26T14:39:57;13.10;99.90
16128;DHT22;8168;49.036;7.690;2024-02-26T14:42:28;13.10;99.90
16128;DHT22;8168;49.036;7.690;2024-02-26T14:44:59;13.00;99.90
16128;DHT22;8168;49.036;7.690;2024-02-26T14:47:30;13.10;99.90
16128;DHT22;8168;49.036;7.690;2024-02-26T14:50:01;13.10;99.90
16128;DHT22;8168;49.036;7.690;2024-02-26T14:52:32;13.00;99.90
16128;DHT22;8168;49.036;7.690;2024-02-26T14:55:02;14.40;99.90
16128;DHT22;8168;49.036;7.690;2024-02-26T14:57:33;13.10;99.90
16128;DHT22;8168;49.036;7.690;2024-02-26T15:00:04;13.10;99.90
16128;DHT22;8168;49.036;7.690;2024-02-26T15:02:36;13.00;99.90
16128;DHT22;8168;49.036;7.690;2024-02-26T15:05:07;13.00;99.90
16128;DHT22;8168;49.036;7.690;2024-02-26T15:07:40;12.90;99.90
16128;DHT22;8168;49.036;7.690;2024-02-26T15:10:11;12.80;99.90
16128;DHT22;8168;49.036;7.690;2024-02-26T15:12:42;12.80;99.90
16128;DHT22;8168;49.036;7.690;2024-02-26T15:15:13;12.80;99.90
16128;DHT22;8168;49.036;7.690;2024-02-26T15:17:44;12.70;99.90
16128;DHT22;8168;49.036;7.690;2024-02-26T15:20:15;12.70;99.90
16128;DHT22;8168;49.036;7.690;2024-02-26T15:22:46;13.00;99.90
16128;DHT22;8168;49.036;7.690;2024-02-26T15:25:17;12.60;99.90
16128;DHT22;8168;49.036;7.690;2024-02-26T15:27:47;12.60;99.90
16128;DHT22;8168;49.036;7.690;2024-02-26T15:30:18;12.60;99.90
16128;DHT22;8168;49.036;7.690;2024-02-26T15:32:49;12.60;99.90
16128;DHT22;8168;49.036;7.690;2024-02-26T15:35:19;12.60;99.90
16128;DHT22;8168;49.036;7.690;2024-02-26T15:37:50;12.70;99.90
16128;DHT22;8168;49.036;7.690;2024-02-26T15:40:21;12.70;99.90
16128;DHT22;8168;49.036;7.690;2024-02-26T15:42:52;12.70;99.90
16128;DHT22;8168;49.036;7.690;2024-02-26T15:45:22;12.70;99.90
16128;DHT22;8168;49.036;7.690;2024-02-26T15:47:55;12.70;99.90
16128;DHT22;8168;49.036;7.690;2024-02-26T15:50:25;12.80;99.90
16128;DHT22;8168;49.036;7.690;2024-02-26T15:52:56;12.70;99.90
16128;DHT22;8168;49.036;7.690;2024-02-26T15:55:28;12.70;99.90
16128;DHT22;8168;49.036;7.690;2024-02-26T15:57:59;12.70;99.90
16128;DHT22;8168;49.036;7.690;2024-02-26T16:00:30;12.70;99.90
16128;DHT22;8168;49.036;7.690;2024-02-26T16:03:00;12.70;99.90
16128;DHT22;8168;49.036;7.690;2024-02-26T16:05:33;12.60;99.90
16128;DHT22;8168;49.036;7.690;2024-02-26T16:08:24;12.60;99.90
16128;DHT22;8168;49.036;7.690;2024-02-26T16:10:55;12.60;99.90
16128;DHT22;8168;49.036;7.690;2024-02-26T16:13:26;12.70;99.90
16128;DHT22;8168;49.036;7.690;2024-02-26T16:16:05;13.40;99.90
16128;DHT22;8168;49.036;7.690;2024-02-26T16:18:37;12.60;99.90
16128;DHT22;8168;49.036;7.690;2024-02-26T16:21:08;12.50;99.90
16128;DHT22;8168;49.036;7.690;2024-02-26T16:23:40;12.50;99.90
16128;DHT22;8168;49.036;7.690;2024-02-26T16:26:11;12.50;99.90
16128;DHT22;8168;49.036;7.690;2024-02-26T16:28:42;12.40;99.90